createdAt,value
2019-01-03T00:01:43.559Z,0.19
2019-01-03T00:04:44.603Z,0.13
2019-01-03T00:07:38.990Z,0.23
2019-01-03T00:10:43.037Z,0.31
2019-01-03T00:13:44.054Z,0.10
2019-01-03T00:16:45.114Z,0.33
2019-01-03T00:19:46.126Z,-0.04
2019-01-03T00:22:27.582Z,0.27
2019-01-03T00:25:28.679Z,0.17
2019-01-03T00:28:35.750Z,-0.10
2019-01-03T00:31:12.795Z,0.20
2019-01-03T00:33:53.985Z,-0.18
2019-01-03T00:36:35.137Z,-0.12
2019-01-03T00:39:16.465Z,0.22
2019-01-03T00:42:17.506Z,0.10
2019-01-03T00:45:18.572Z,0.13
2019-01-03T00:48:19.589Z,0.03
2019-01-03T00:51:00.767Z,-0.24
2019-01-03T00:53:41.923Z,-0.28
2019-01-03T00:56:23.139Z,0.04
2019-01-03T01:01:47.091Z,-0.25
2019-01-03T01:04:28.284Z,-0.26
2019-01-03T01:12:40.948Z,-0.06
2019-01-03T01:18:32.264Z,-0.32
2019-01-03T01:21:13.404Z,-0.31
2019-01-03T01:23:54.795Z,-0.45
2019-01-03T01:37:46.067Z,-0.38
2019-01-03T01:43:16.244Z,-0.67
2019-01-03T01:46:17.280Z,-0.70
2019-01-03T01:49:18.330Z,-0.74
2019-01-03T01:51:59.502Z,-0.53
2019-01-03T01:57:43.445Z,-0.43
2019-01-03T02:03:28.203Z,-0.69
2019-01-03T02:06:09.358Z,-0.65
2019-01-03T02:09:04.270Z,-0.39
2019-01-03T02:11:45.459Z,-0.33
2019-01-03T02:14:26.643Z,-0.64
2019-01-03T02:19:50.523Z,-0.26
2019-01-03T02:22:31.731Z,-0.27
2019-01-03T02:25:32.797Z,-0.49
2019-01-03T02:28:33.823Z,-0.21
2019-01-03T02:31:14.999Z,-0.54
2019-01-03T02:33:56.229Z,-0.34
2019-01-03T02:36:37.410Z,-0.73
2019-01-03T02:39:38.436Z,-0.27
2019-01-03T02:42:19.607Z,-0.54
2019-01-03T02:45:00.753Z,-0.30
2019-01-03T02:48:01.864Z,-0.30
2019-01-03T02:50:43.055Z,-0.27
2019-01-03T02:53:24.258Z,-0.22
2019-01-03T02:56:25.268Z,-0.45
2019-01-03T02:59:06.447Z,-0.19
2019-01-03T03:02:07.482Z,-0.45
2019-01-03T03:05:08.533Z,-0.19
2019-01-03T03:10:32.779Z,-0.25
2019-01-03T03:19:15.420Z,-0.33
2019-01-03T03:21:56.710Z,-0.26
2019-01-03T03:27:07.218Z,-0.55
2019-01-03T03:30:08.252Z,-0.36
2019-01-03T03:32:49.449Z,-0.63
2019-01-03T03:35:30.605Z,-0.62
2019-01-03T03:38:11.817Z,-0.54
2019-01-03T03:40:53.055Z,-0.51
2019-01-03T03:43:34.400Z,-0.58
2019-01-03T03:46:35.586Z,-0.25
2019-01-03T03:49:16.769Z,-0.50
2019-01-03T03:51:57.926Z,-0.22
2019-01-03T03:54:58.986Z,-0.17
2019-01-03T03:57:40.145Z,-0.31
2019-01-03T04:00:21.818Z,-0.26
2019-01-03T04:03:02.981Z,-0.20
2019-01-03T04:05:58.171Z,-0.13
2019-01-03T04:08:39.371Z,-0.46
2019-01-03T04:11:40.417Z,-0.19
2019-01-03T04:17:30.713Z,-0.40
2019-01-03T04:20:31.722Z,-0.50
2019-01-03T04:23:12.932Z,-0.47
2019-01-03T04:26:14.240Z,-0.44
2019-01-03T04:28:55.402Z,-0.45
2019-01-03T04:31:56.461Z,-0.14
2019-01-03T04:40:09.658Z,-0.35
2019-01-03T04:42:51.144Z,-0.30
2019-01-03T04:45:52.171Z,-0.29
2019-01-03T04:48:33.343Z,0.02
2019-01-03T04:51:14.464Z,0.12
2019-01-03T04:53:55.648Z,-0.17
2019-01-03T04:59:46.317Z,0.19
2019-01-03T05:05:16.454Z,-0.07
2019-01-03T05:07:57.741Z,0.22
2019-01-03T05:10:58.901Z,0.05
2019-01-03T05:13:59.935Z,-0.01
2019-01-03T05:22:39.263Z,0.40
2019-01-03T05:25:20.396Z,0.12
2019-01-03T05:28:01.545Z,0.12
2019-01-03T05:30:42.769Z,0.49
2019-01-03T05:33:23.973Z,0.21
2019-01-03T05:36:24.996Z,0.28
2019-01-03T05:39:06.156Z,0.56
2019-01-03T05:41:47.280Z,0.31
2019-01-03T05:47:17.501Z,0.65
2019-01-03T05:50:18.537Z,0.43
2019-01-03T05:52:59.708Z,0.69
2019-01-03T05:58:43.731Z,0.56
2019-01-03T06:01:24.892Z,0.61
2019-01-03T06:04:04.368Z,0.84
2019-01-03T06:06:45.499Z,0.57
2019-01-03T06:17:54.821Z,1.05
2019-01-03T06:23:25.359Z,1.04
2019-01-03T06:26:26.398Z,1.04
2019-01-03T06:29:27.440Z,1.03
2019-01-03T06:32:08.576Z,0.72
2019-01-03T06:34:29.870Z,0.98
2019-01-03T06:37:10.997Z,0.66
2019-01-03T06:39:52.167Z,0.66
2019-01-03T06:42:33.417Z,0.69
2019-01-03T06:48:23.461Z,0.94
2019-01-03T06:51:04.593Z,0.64
2019-01-03T06:56:28.486Z,0.93
2019-01-03T07:01:51.085Z,0.67
2019-01-03T07:04:52.135Z,0.98
2019-01-03T07:07:53.221Z,0.69
2019-01-03T07:10:34.512Z,0.93
2019-01-03T07:13:15.667Z,0.73
2019-01-03T07:15:56.903Z,0.68
2019-01-03T07:18:38.095Z,0.89
2019-01-03T07:21:19.475Z,0.69
2019-01-03T07:24:00.662Z,0.70
2019-01-03T07:26:41.836Z,1.03
2019-01-03T07:29:23.020Z,1.06
2019-01-03T07:35:06.799Z,0.69
2019-01-03T07:40:50.584Z,1.04
2019-01-03T07:43:31.744Z,0.77
2019-01-03T07:46:12.942Z,0.80
2019-01-03T07:48:54.086Z,0.88
2019-01-03T07:51:35.261Z,1.13
2019-01-03T07:56:59.199Z,1.20
2019-01-03T07:59:40.402Z,1.24
2019-01-03T08:02:21.571Z,0.97
2019-01-03T08:05:02.976Z,0.93
2019-01-03T08:10:52.988Z,1.21
2019-01-03T08:13:54.041Z,1.21
2019-01-03T08:16:55.123Z,1.01
2019-01-03T08:19:56.153Z,1.04
2019-01-03T08:22:37.346Z,1.33
2019-01-03T08:24:58.638Z,1.29
2019-01-03T08:27:40.095Z,1.09
2019-01-03T08:30:21.305Z,1.27
2019-01-03T08:33:02.493Z,1.36
2019-01-03T08:35:43.610Z,1.18
2019-01-03T08:38:06.805Z,1.19
2019-01-03T08:40:49.876Z,1.64
2019-01-03T08:46:43.616Z,1.41
2019-01-03T08:55:17.007Z,1.68
2019-01-03T09:00:40.914Z,1.70
2019-01-03T09:03:15.351Z,1.66
2019-01-03T09:06:19.536Z,1.91
2019-01-03T09:09:20.572Z,1.81
2019-01-03T09:12:01.775Z,1.75
2019-01-03T09:14:42.881Z,1.68
2019-01-03T09:19:53.593Z,2.08
2019-01-03T09:25:57.769Z,1.99
2019-01-03T09:28:58.809Z,1.90
2019-01-03T09:31:40.033Z,2.27
2019-01-03T09:34:21.208Z,2.33
2019-01-03T09:39:51.446Z,2.42
2019-01-03T09:42:26.018Z,2.12
2019-01-03T09:44:47.297Z,2.42
2019-01-03T09:47:08.707Z,2.45
2019-01-03T09:49:30.000Z,2.49
2019-01-03T09:51:51.318Z,2.19
2019-01-03T09:54:12.583Z,2.28
2019-01-03T09:56:33.929Z,2.48
2019-01-03T09:58:55.281Z,2.65
2019-01-03T10:01:16.574Z,2.55
2019-01-03T10:03:57.775Z,2.45
2019-01-03T10:06:32.748Z,2.49
2019-01-03T10:09:13.968Z,2.64
2019-01-03T10:11:35.276Z,2.46
2019-01-03T10:13:56.557Z,2.73
2019-01-03T10:16:18.068Z,2.75
2019-01-03T10:18:39.346Z,2.58
2019-01-03T10:21:00.629Z,2.85
2019-01-03T10:23:22.068Z,2.71
2019-01-03T10:25:43.408Z,2.61
2019-01-03T10:27:44.818Z,2.98
2019-01-03T10:30:06.335Z,2.65
2019-01-03T10:32:27.617Z,2.73
2019-01-03T10:34:29.026Z,2.79
2019-01-03T10:36:50.313Z,2.72
2019-01-03T10:39:11.611Z,2.72
2019-01-03T10:41:32.901Z,3.03
2019-01-03T10:43:54.232Z,2.96
2019-01-03T10:46:09.068Z,3.05
2019-01-03T10:48:30.397Z,2.85
2019-01-03T10:50:31.787Z,3.04
2019-01-03T10:52:53.099Z,2.90
2019-01-03T10:55:14.438Z,2.97
2019-01-03T10:57:35.707Z,3.15
2019-01-03T10:59:56.999Z,3.14
2019-01-03T11:02:18.332Z,3.23
2019-01-03T11:04:39.654Z,3.18
2019-01-03T11:07:00.937Z,3.24
2019-01-03T11:09:22.506Z,3.23
2019-01-03T11:11:43.787Z,3.26
2019-01-03T11:14:05.091Z,3.25
2019-01-03T11:16:26.417Z,3.24
2019-01-03T11:19:07.566Z,3.37
2019-01-03T11:21:09.015Z,3.23
2019-01-03T11:23:30.298Z,2.93
2019-01-03T11:25:51.634Z,3.22
2019-01-03T11:28:12.951Z,2.83
2019-01-03T11:30:41.803Z,3.17
2019-01-03T11:33:03.080Z,3.03
2019-01-03T11:35:44.268Z,2.90
2019-01-03T11:37:45.722Z,3.11
2019-01-03T11:40:06.994Z,2.98
2019-01-03T11:42:28.296Z,3.20
2019-01-03T11:44:49.576Z,3.23
2019-01-03T11:47:10.892Z,3.41
2019-01-03T11:49:32.185Z,3.40
2019-01-03T11:51:53.567Z,3.17
2019-01-03T11:54:16.788Z,3.42
2019-01-03T11:56:38.102Z,3.43
2019-01-03T11:58:59.396Z,3.21
2019-01-03T12:01:20.734Z,3.43
2019-01-03T12:03:35.400Z,3.15
2019-01-03T12:05:56.709Z,3.38
2019-01-03T12:08:18.023Z,3.54
2019-01-03T12:10:39.289Z,3.30
2019-01-03T12:13:00.657Z,3.49
2019-01-03T12:15:43.931Z,3.57
2019-01-03T12:18:05.260Z,3.36
2019-01-03T12:20:26.529Z,3.54
2019-01-03T12:22:47.800Z,3.58
2019-01-03T12:25:09.114Z,3.41
2019-01-03T12:27:30.408Z,3.45
2019-01-03T12:29:51.735Z,3.41
2019-01-03T12:32:13.047Z,3.41
2019-01-03T12:34:34.344Z,3.44
2019-01-03T12:36:55.681Z,3.61
2019-01-03T12:39:16.985Z,3.62
2019-01-03T12:41:38.301Z,3.70
2019-01-03T12:43:59.571Z,3.40
2019-01-03T12:46:21.144Z,3.39
2019-01-03T12:49:02.320Z,3.26
2019-01-03T12:51:23.670Z,3.53
2019-01-03T12:53:44.953Z,3.33
2019-01-03T12:55:46.361Z,3.53
2019-01-03T12:58:07.679Z,3.53
2019-01-03T13:00:29.030Z,3.57
2019-01-03T13:02:43.585Z,3.50
2019-01-03T13:05:26.704Z,3.26
2019-01-03T13:07:49.923Z,3.26
2019-01-03T13:10:11.242Z,3.23
2019-01-03T13:12:33.067Z,3.36
2019-01-03T13:14:54.367Z,3.51
2019-01-03T13:17:15.704Z,3.19
2019-01-03T13:19:37.092Z,3.14
2019-01-03T13:21:58.409Z,3.37
2019-01-03T13:24:19.674Z,3.42
2019-01-03T13:26:40.987Z,3.45
2019-01-03T13:29:02.357Z,3.36
2019-01-03T13:31:23.655Z,3.31
2019-01-03T13:33:45.181Z,3.37
2019-01-03T13:36:07.466Z,3.24
2019-01-03T13:38:28.753Z,2.98
2019-01-03T13:40:50.063Z,3.15
2019-01-03T13:42:51.532Z,3.11
2019-01-03T13:45:12.872Z,2.83
2019-01-03T13:47:34.148Z,3.15
2019-01-03T13:49:35.553Z,3.09
2019-01-03T13:51:57.142Z,3.10
2019-01-03T13:54:18.453Z,2.80
2019-01-03T13:56:39.737Z,2.98
2019-01-03T13:58:41.204Z,3.12
2019-01-03T14:01:02.534Z,2.99
2019-01-03T14:03:24.182Z,3.12
2019-01-03T14:05:45.470Z,2.90
2019-01-03T14:08:06.757Z,3.14
2019-01-03T14:10:28.200Z,3.24
2019-01-03T14:12:49.485Z,3.02
2019-01-03T14:15:11.075Z,3.13
2019-01-03T14:17:32.418Z,3.14
2019-01-03T14:19:33.816Z,3.24
2019-01-03T14:21:55.098Z,2.85
2019-01-03T14:24:09.756Z,3.08
2019-01-03T14:26:31.037Z,2.91
2019-01-03T14:28:32.423Z,3.07
2019-01-03T14:30:53.759Z,2.91
2019-01-03T14:33:15.025Z,3.07
2019-01-03T14:35:36.318Z,3.09
2019-01-03T14:37:57.644Z,2.91
2019-01-03T14:40:18.912Z,2.84
2019-01-03T14:42:40.197Z,3.06
2019-01-03T14:47:28.903Z,2.72
2019-01-03T14:49:50.229Z,3.01
2019-01-03T14:52:11.594Z,2.77
2019-01-03T14:54:33.225Z,2.66
2019-01-03T14:56:54.523Z,2.73
2019-01-03T14:59:15.865Z,2.41
2019-01-03T15:01:17.558Z,2.68
2019-01-03T15:03:38.825Z,2.40
2019-01-03T15:06:00.108Z,2.61
2019-01-03T15:08:21.644Z,2.53
2019-01-03T15:10:36.134Z,2.30
2019-01-03T15:12:57.651Z,2.40
2019-01-03T15:15:18.985Z,2.49
2019-01-03T15:17:40.296Z,2.36
2019-01-03T15:20:01.595Z,2.46
2019-01-03T15:22:22.864Z,2.36
2019-01-03T15:24:37.711Z,2.23
2019-01-03T15:26:59.078Z,2.15
2019-01-03T15:29:20.356Z,1.90
2019-01-03T15:31:41.639Z,2.26
2019-01-03T15:34:02.993Z,2.02
2019-01-03T15:36:24.267Z,2.01
2019-01-03T15:38:45.839Z,2.10
2019-01-03T15:41:07.080Z,1.94
2019-01-03T15:43:28.357Z,2.11
2019-01-03T15:45:49.694Z,1.82
2019-01-03T15:47:51.099Z,1.87
2019-01-03T15:50:12.393Z,1.74
2019-01-03T15:52:33.770Z,1.80
2019-01-03T15:54:35.177Z,1.76
2019-01-03T15:56:56.531Z,1.79
2019-01-03T15:59:11.201Z,1.78
2019-01-03T16:01:32.478Z,1.99
2019-01-03T16:03:53.775Z,1.89
2019-01-03T16:06:15.101Z,1.43
2019-01-03T16:08:36.378Z,1.64
2019-01-03T16:10:57.718Z,1.41
2019-01-03T16:13:18.986Z,1.65
2019-01-03T16:15:40.266Z,1.87
2019-01-03T16:18:02.535Z,1.75
2019-01-03T16:20:23.866Z,1.26
2019-01-03T16:22:45.145Z,1.26
2019-01-03T16:25:06.535Z,1.83
2019-01-03T16:27:27.873Z,1.79
2019-01-03T16:29:49.145Z,1.68
2019-01-03T16:32:10.417Z,1.78
2019-01-03T16:34:31.910Z,1.61
2019-01-03T16:36:53.187Z,1.81
2019-01-03T16:39:14.449Z,1.66
2019-01-03T16:41:35.798Z,1.93
2019-01-03T16:43:57.091Z,1.91
2019-01-03T16:46:18.371Z,1.70
2019-01-03T16:48:39.700Z,1.88
2019-01-03T16:51:00.975Z,1.74
2019-01-03T16:53:22.245Z,1.69
2019-01-03T16:55:37.605Z,1.54
2019-01-03T16:57:58.899Z,1.56
2019-01-03T17:00:20.177Z,1.73
2019-01-03T17:02:41.639Z,1.88
2019-01-03T17:05:25.702Z,1.65
2019-01-03T17:07:47.005Z,1.90
2019-01-03T17:10:30.078Z,1.53
2019-01-03T17:12:51.424Z,1.53
2019-01-03T17:15:12.699Z,1.95
2019-01-03T17:17:34.047Z,1.67
2019-01-03T17:19:55.493Z,1.64
2019-01-03T17:22:16.751Z,1.68
2019-01-03T17:24:38.024Z,2.03
2019-01-03T17:26:59.361Z,1.66
2019-01-03T17:29:20.644Z,1.63
2019-01-03T17:31:42.152Z,1.73
2019-01-03T17:34:03.402Z,1.42
2019-01-03T17:36:24.831Z,1.73
2019-01-03T17:38:46.241Z,1.59
2019-01-03T17:41:07.636Z,1.66
2019-01-03T17:43:28.973Z,1.40
2019-01-03T17:45:50.239Z,1.32
2019-01-03T17:48:11.536Z,1.03
2019-01-03T17:50:52.761Z,1.21
2019-01-03T17:53:33.894Z,1.31
2019-01-03T17:55:35.278Z,1.31
2019-01-03T17:57:51.084Z,1.19
2019-01-03T18:00:57.182Z,1.21
2019-01-03T18:03:38.416Z,1.35
2019-01-03T18:06:19.553Z,1.19
2019-01-03T18:09:00.784Z,0.86
2019-01-03T18:11:22.053Z,1.06
2019-01-03T18:13:43.317Z,1.10
2019-01-03T18:16:04.670Z,1.11
2019-01-03T18:18:06.077Z,0.93
2019-01-03T18:20:27.329Z,0.80
2019-01-03T18:22:48.655Z,0.66
2019-01-03T18:25:29.821Z,0.77
2019-01-03T18:28:11.053Z,0.46
2019-01-03T18:30:32.353Z,0.73
2019-01-03T18:32:53.641Z,0.46
2019-01-03T18:35:14.977Z,0.30
2019-01-03T18:37:36.259Z,0.52
2019-01-03T18:39:57.498Z,0.20
2019-01-03T18:42:18.836Z,0.59
2019-01-03T18:44:59.988Z,0.47
2019-01-03T18:47:21.490Z,0.24
2019-01-03T18:49:42.787Z,0.14
2019-01-03T18:52:04.079Z,0.32
2019-01-03T18:54:05.548Z,0.34
2019-01-03T18:56:26.817Z,0.30
2019-01-03T18:58:41.787Z,-0.04
2019-01-03T19:01:03.141Z,0.25
2019-01-03T19:03:24.395Z,-0.03
2019-01-03T19:05:45.650Z,0.29
2019-01-03T19:08:07.007Z,0.20
2019-01-03T19:10:28.481Z,0.16
2019-01-03T19:12:49.863Z,-0.16
2019-01-03T19:15:11.254Z,0.12
2019-01-03T19:17:52.455Z,0.17
2019-01-03T19:20:14.409Z,0.11
2019-01-03T19:22:35.821Z,0.17
2019-01-03T19:24:57.081Z,0.31
2019-01-03T19:27:18.437Z,0.12
2019-01-03T19:29:39.716Z,0.07
2019-01-03T19:32:01.001Z,0.09
2019-01-03T19:34:22.331Z,-0.08
2019-01-03T19:36:43.646Z,-0.02
2019-01-03T19:39:05.202Z,-0.21
2019-01-03T19:41:26.431Z,-0.25
2019-01-03T19:43:47.708Z,-0.34
2019-01-03T19:46:29.159Z,-0.12
2019-01-03T19:49:10.334Z,-0.40
2019-01-03T19:51:31.664Z,-0.13
2019-01-03T19:53:52.961Z,-0.14
2019-01-03T19:56:14.284Z,-0.21
2019-01-03T19:58:35.542Z,-0.28
2019-01-03T20:01:10.640Z,-0.55
2019-01-03T20:03:51.955Z,-0.32
2019-01-03T20:06:33.223Z,-0.39
2019-01-03T20:09:14.442Z,-0.35
2019-01-03T20:11:55.782Z,-0.66
2019-01-03T20:14:37.120Z,-0.41
2019-01-03T20:17:18.274Z,-0.77
2019-01-03T20:19:39.615Z,-0.50
2019-01-03T20:22:00.998Z,-0.55
2019-01-03T20:24:22.251Z,-0.84
2019-01-03T20:26:43.722Z,-0.63
2019-01-03T20:29:05.081Z,-0.65
2019-01-03T20:31:26.390Z,-0.67
2019-01-03T20:34:07.656Z,-0.86
2019-01-03T20:36:09.056Z,-0.66
2019-01-03T20:38:30.387Z,-0.70
2019-01-03T20:41:11.617Z,-1.04
2019-01-03T20:43:52.760Z,-1.03
2019-01-03T20:46:14.274Z,-0.84
2019-01-03T20:48:55.413Z,-0.83
2019-01-03T20:51:16.764Z,-0.85
2019-01-03T20:53:39.281Z,-0.91
2019-01-03T20:56:21.185Z,-0.93
2019-01-03T20:58:42.459Z,-1.22
2019-01-03T21:01:23.830Z,-0.89
2019-01-03T21:03:58.929Z,-1.24
2019-01-03T21:06:40.155Z,-0.96
2019-01-03T21:09:21.440Z,-0.97
2019-01-03T21:11:42.853Z,-1.03
2019-01-03T21:13:44.315Z,-0.82
2019-01-03T21:16:05.599Z,-0.89
2019-01-03T21:18:26.874Z,-0.97
2019-01-03T21:20:48.191Z,-1.00
2019-01-03T21:23:09.663Z,-0.82
2019-01-03T21:25:30.960Z,-0.93
2019-01-03T21:27:52.263Z,-0.94
2019-01-03T21:33:37.172Z,-1.06
2019-01-03T21:36:18.371Z,-1.07
2019-01-03T21:38:59.533Z,-0.77
2019-01-03T21:41:20.966Z,-0.95
2019-01-03T21:43:42.254Z,-0.76
2019-01-03T21:46:03.531Z,-0.54
2019-01-03T21:48:24.843Z,-0.82
2019-01-03T21:50:46.135Z,-0.51
2019-01-03T21:53:07.558Z,-0.61
2019-01-03T21:55:28.881Z,-0.32
2019-01-03T21:58:10.082Z,-0.69
2019-01-03T22:00:31.427Z,-0.44
2019-01-03T22:02:52.715Z,-0.65
2019-01-03T22:05:08.855Z,-0.46
2019-01-03T22:07:30.131Z,-0.20
2019-01-03T22:09:51.399Z,-0.30
2019-01-03T22:12:12.747Z,-0.39
2019-01-03T22:14:53.889Z,-0.49
2019-01-03T22:17:35.103Z,-0.75
2019-01-03T22:19:56.387Z,-0.49
2019-01-03T22:22:17.654Z,-0.24
2019-01-03T22:24:39.176Z,-0.31
2019-01-03T22:27:00.456Z,-0.24
2019-01-03T22:29:21.733Z,-0.65
2019-01-03T22:31:23.195Z,-0.43
2019-01-03T22:33:44.477Z,-0.57
2019-01-03T22:36:05.764Z,-0.57
2019-01-03T22:38:47.196Z,-0.66
2019-01-03T22:41:08.554Z,-1.06
2019-01-03T22:43:29.821Z,-0.89
2019-01-03T22:45:51.151Z,-0.85
2019-01-03T22:48:12.423Z,-0.97
2019-01-03T22:50:33.757Z,-1.04
2019-01-03T22:52:55.097Z,-1.39
2019-01-03T22:55:16.509Z,-1.13
2019-01-03T22:57:37.800Z,-1.26
2019-01-03T22:59:59.121Z,-1.29
2019-01-03T23:02:00.722Z,-1.35
2019-01-03T23:04:21.999Z,-1.35
2019-01-03T23:06:37.333Z,-1.27
2019-01-03T23:08:58.623Z,-1.60
2019-01-03T23:11:19.884Z,-1.55
2019-01-03T23:13:41.213Z,-1.28
2019-01-03T23:16:02.463Z,-1.56
2019-01-03T23:18:31.241Z,-1.52
2019-01-03T23:21:06.868Z,-1.46
2019-01-03T23:23:48.025Z,-1.44
2019-01-03T23:26:29.205Z,-1.38
2019-01-03T23:28:50.480Z,-1.36
2019-01-03T23:31:31.682Z,-1.07
2019-01-03T23:34:12.899Z,-1.37
2019-01-03T23:36:54.053Z,-1.02
2019-01-03T23:39:35.317Z,-1.00
2019-01-03T23:41:56.620Z,-1.02
2019-01-03T23:44:17.885Z,-0.98
2019-01-03T23:46:59.121Z,-0.97
2019-01-03T23:49:40.377Z,-1.19
2019-01-03T23:52:01.941Z,-1.13
2019-01-03T23:54:23.275Z,-1.09
2019-01-03T23:56:24.677Z,-0.81
2019-01-03T23:58:46.012Z,-0.81
